AirNav   Duncan Aviation - Near you to keep you flying
 
 1588 users online  

27WA JC's Airport
Conway, Washington, USA

GOING TO CONWAY?


FAA INFORMATION EFFECTIVE 04 NOVEMBER 2021

Location

FAA Identifier: 27WA
Lat/Long: 48-19-30.3680N 122-18-56.5560W
48-19.506133N 122-18.942600W
48.3251022,-122.3157100
(estimated)
Elevation: 236 ft. / 72 m (estimated)
Variation: 21E (1985)
From city: 1 mile SE of CONWAY, WA
Time zone: UTC -8 (UTC -7 during Daylight Saving Time)
Zip code: 98274

Airport Operations

Airport use: Private use. Permission required prior to landing
Activation date: 07/1989
Control tower: no
ARTCC: SEATTLE CENTER
FSS: SEATTLE FLIGHT SERVICE STATION
Attendance: ON CALL ON CALL
Wind indicator: no
Segmented circle: no

Airport Communications

WX AWOS-3 at BVS (10 nm NW): 121.125 (360-757-7767)
WX AWOS-3PT at AWO (12 nm SE): 135.625 (360-435-8045)
WX ASOS at NUW (14 nm W): PHONE 360-257-8813
WX AWOS-3 at OKH (15 nm W): 132.775 (360-675-8431)

Nearby radio navigation aids

VOR radial/distance  VOR name  Freq  Var
CVVr055/17.0PENN COVE VOR/DME117.2019E
PAEr336/24.4PAINE VOR/DME110.6020E
HUHr144/38.7WHATCOM VORTAC113.0020E

 
NDB name  Hdg/Dist  Freq  Var  ID
SKAGIT/BAY VIEW139/9.524016EBVS -... ...- ...
FRIDAY HARBOR095/30.428417EFHR ..-. .... .-.

Airport Services

Runway Information

Runway 7/25

Dimensions: 1200 x 30 ft. / 366 x 9 m
Surface: turf
RUNWAY 7  RUNWAY 25
Traffic pattern: leftleft
Obstructions: 4 ft. fence, 5 ft. from runway150 ft. trees, 800 ft. from runway

Airport Ownership and Management from official FAA records

Ownership: Privately-owned
Owner: MARION J LARKIN
19737 TROPHY LN
MT VERNON, WA 98274
Phone 360-739-1820
Manager: MARION J LARKIN
19737 TROPHY LN
MT VERNON, WA 98274
Phone 360-739-1820

Airport Operational Statistics

Aircraft based on the field: 1
Single engine airplanes: 1
    

Additional Remarks

FOR CD CTC SEATTLE ARTCC AT 253-351-3694.

Instrument Procedures

There are no published instrument procedures at 27WA.

Some nearby airports with instrument procedures:

KBVS - Skagit Regional Airport (10 nm NW)
KAWO - Arlington Municipal Airport (12 nm SE)
KNUW - Whidbey Island Naval Air Station (Ault Field) (14 nm W)
KOKH - AJ Eisenberg Airport (15 nm W)
KPAE - Snohomish County Airport (Paine Field) (25 nm S)
 
Loc | Ops | Rwys | IFR | FBO | Links
Com | Nav | Svcs | Stats | Notes
Area around 27WA (JC's Airport)
 
Road maps at: MapQuest Bing Google
 
Aerial photo
No photo
 
Sectional chart

 
Airport distance calculator
Flying to JC's Airport? Find the distance to fly.

From to 27WA

Sunrise and sunset
Times for 29-Nov-2021
 Local
(UTC-8)
 Zulu
(UTC)
Morning civil twilight07:0215:02
Sunrise07:3815:38
Sunset16:1700:17
Evening civil twilight16:5300:53

Current date and time
Zulu (UTC)  29-Nov-2021 23:40:07
Local (UTC-8)  29-Nov-2021 15:40:07
 
METAR
KBVS 
9nm NW 
292315Z AUTO 13004KT 7SM OVC028 14/11 A3021 RMK A01
KAWO 
11nm SE 
292256Z AUTO 12006KT 10SM OVC032 13/11 A3024 RMK AO2 SLP244 T01330106
KNUW 
13nm W 
292256Z 11008KT 10SM SCT019 SCT035 BKN075 BKN180 OVC250 13/10 A3024 RMK AO2 SLP240 T01330100 $
TAF
KNUW 
13nm W 
2918/3015 13007KT 9999 VCSH FEW008 BKN030 BKN120 OVC250 QNH3020INS TEMPO 2918/2921 16008KT 9999 SCT008 BKN012 BKN030 BKN250 FM292100 16009KT 9999 VCSH SCT012 BKN020 BKN100 BKN250 QNH3022INS FM292300 VRB06KT 9999 SCT008 BKN010 OVC120 640709 QNH3017INS FM301200 15012KT 9999 -RA SCT008 BKN015 OVC080 600000 QNH3012INS T14/2922Z T08/3013Z COR AMD 1835 FS30004
NOTAMs
Click for the latest NOTAMs
NOTAMs are issued by the DoD/FAA and will open in a separate window not controlled by AirNav.

 

 
 

Would you like to see your business listed on this page?

 If your business provides an interesting product or service to pilots, flight crews, aircraft, or users of the JC's Airport, you should consider listing it here.  To start the listing process, click on the button below
 
Add a business
 

Other Pages about JC's Airport

Update a link
 
Copyright © AirNav, LLC. All rights reserved. Privacy Policy  Contact